Time;durP1;ratioP1;P1;durP2;ratioP2;P2;SDS_P1;SDS_P2;PMS_P1;PMS_P2;Temp;Humidity;BMP_temperature;BMP_pressure;BME280_temperature;BME280_humidity;BME280_pressure;Samples;Min_cycle;Max_cycle;Signal;HPM_P1;HPM_P2
2024/03/06 00:02:24;;;;;;;20.45;6.15;;;7.40;99.90;;;;;;5001189;28;20262;-83
2024/03/06 00:04:49;;;;;;;22.13;5.70;;;7.40;99.90;;;;;;5000552;28;20207;-83
2024/03/06 00:07:15;;;;;;;23.20;7.03;;;7.30;99.90;;;;;;4984691;28;20174;-83
2024/03/06 00:09:41;;;;;;;22.85;8.18;;;7.30;99.90;;;;;;5001443;28;20156;-84
2024/03/06 00:12:07;;;;;;;23.97;6.53;;;7.20;99.90;;;;;;5002333;28;20190;-84
2024/03/06 00:14:33;;;;;;;21.23;6.53;;;7.20;99.90;;;;;;5006098;28;20432;-84
2024/03/06 00:16:59;;;;;;;19.10;6.30;;;7.20;99.90;;;;;;5006313;28;20426;-84
2024/03/06 00:19:24;;;;;;;20.90;7.10;;;7.20;99.90;;;;;;5007654;28;20171;-84
2024/03/06 00:21:50;;;;;;;23.00;5.40;;;7.20;99.90;;;;;;4989043;28;20198;-84
2024/03/06 00:24:16;;;;;;;17.77;4.87;;;7.30;99.90;;;;;;5006170;28;20186;-84
2024/03/06 00:26:44;;;;;;;18.55;5.93;;;7.30;99.90;;;;;;5006188;28;20454;-84
2024/03/06 00:29:10;;;;;;;20.08;5.75;;;7.30;99.90;;;;;;5006252;28;20155;-84
2024/03/06 00:31:36;;;;;;;19.10;5.80;;;7.30;99.90;;;;;;5006337;28;20707;-84
2024/03/06 00:34:01;;;;;;;24.20;7.03;;;7.40;99.90;;;;;;5006474;28;20168;-84
2024/03/06 00:36:27;;;;;;;21.10;5.70;;;7.40;99.90;;;;;;5006656;28;20430;-84
2024/03/06 00:38:53;;;;;;;17.70;5.13;;;7.40;99.90;;;;;;5006678;28;20163;-84
2024/03/06 00:41:19;;;;;;;18.70;6.23;;;7.50;99.90;;;;;;5006906;28;20198;-84
2024/03/06 00:43:45;;;;;;;16.27;4.47;;;7.40;99.90;;;;;;5006415;28;20704;-84
2024/03/06 00:46:11;;;;;;;18.67;5.40;;;7.40;99.90;;;;;;4989294;28;20458;-84
2024/03/06 00:48:38;;;;;;;22.33;6.38;;;7.30;99.90;;;;;;5006323;28;20648;-84
2024/03/06 00:51:07;;;;;;;22.10;5.93;;;7.30;99.90;;;;;;4989175;28;20217;-84
2024/03/06 00:53:35;;;;;;;19.55;6.63;;;7.20;99.90;;;;;;5006554;28;20163;-84
2024/03/06 00:56:01;;;;;;;20.20;6.85;;;7.20;99.90;;;;;;5006148;28;20179;-84
2024/03/06 00:58:26;;;;;;;18.53;6.27;;;7.20;99.90;;;;;;5006244;28;20647;-84
2024/03/06 01:00:52;;;;;;;20.37;5.77;;;7.30;99.90;;;;;;5006140;28;20431;-84
2024/03/06 01:03:18;;;;;;;18.80;5.63;;;7.20;99.90;;;;;;5006527;28;20216;-84
2024/03/06 01:05:43;;;;;;;16.77;3.77;;;7.20;99.90;;;;;;5005840;28;20195;-84
2024/03/06 01:08:09;;;;;;;16.27;5.37;;;7.20;99.90;;;;;;4988261;28;20171;-84
2024/03/06 01:10:35;;;;;;;17.00;3.87;;;7.10;99.90;;;;;;5005764;28;20668;-84
2024/03/06 01:13:01;;;;;;;19.77;6.13;;;7.00;99.90;;;;;;5005636;28;20178;-84
2024/03/06 01:15:26;;;;;;;16.73;4.30;;;7.00;99.90;;;;;;4988128;28;20234;-84
2024/03/06 01:17:52;;;;;;;18.03;5.37;;;6.90;99.90;;;;;;5005511;28;20167;-84
2024/03/06 01:20:18;;;;;;;18.00;5.30;;;6.80;99.90;;;;;;5004877;28;20187;-84
2024/03/06 01:22:45;;;;;;;15.93;4.20;;;6.70;99.90;;;;;;4987344;28;20230;-84
2024/03/06 01:25:11;;;;;;;15.75;3.85;;;6.70;99.90;;;;;;5003102;28;20234;-83
2024/03/06 01:27:37;;;;;;;19.40;5.67;;;6.60;99.90;;;;;;5001069;28;20164;-84
2024/03/06 01:30:04;;;;;;;17.03;4.77;;;6.50;99.90;;;;;;5001734;28;20633;-83
2024/03/06 01:32:30;;;;;;;20.42;5.32;;;6.50;99.90;;;;;;5001072;28;20160;-83
2024/03/06 01:34:55;;;;;;;22.67;4.83;;;6.40;99.90;;;;;;5000274;28;20194;-83
2024/03/06 01:37:21;;;;;;;17.60;4.07;;;6.30;99.90;;;;;;5000198;28;20418;-83
2024/03/06 01:39:47;;;;;;;15.03;3.50;;;6.20;99.90;;;;;;4983021;28;20171;-83
2024/03/06 01:42:12;;;;;;;18.37;4.10;;;6.20;99.90;;;;;;4999717;28;20194;-83
2024/03/06 01:44:38;;;;;;;20.03;5.53;;;6.20;99.90;;;;;;4999640;28;20226;-83
2024/03/06 01:47:03;;;;;;;22.00;5.13;;;6.10;99.90;;;;;;5000011;28;20175;-83
2024/03/06 01:49:30;;;;;;;18.97;4.90;;;6.10;99.90;;;;;;5000387;28;20159;-83
2024/03/06 01:51:57;;;;;;;21.05;5.57;;;6.10;99.90;;;;;;5000320;28;20183;-83
2024/03/06 01:54:24;;;;;;;19.25;4.43;;;6.00;99.90;;;;;;4999232;28;20167;-83
2024/03/06 01:56:50;;;;;;;18.20;5.40;;;5.90;99.90;;;;;;5000473;28;20195;-83
2024/03/06 01:59:18;;;;;;;17.00;4.20;;;5.90;99.90;;;;;;5001177;28;20183;-83
2024/03/06 02:01:43;;;;;;;24.13;4.97;;;5.90;99.90;;;;;;5000816;28;20262;-83
2024/03/06 02:04:11;;;;;;;17.50;4.10;;;5.90;99.90;;;;;;5001334;28;20191;-83
2024/03/06 02:06:39;;;;;;;18.95;5.55;;;5.80;99.90;;;;;;5000741;28;20183;-84
2024/03/06 02:09:04;;;;;;;17.95;5.43;;;5.70;99.90;;;;;;4999931;28;20167;-83
2024/03/06 02:11:30;;;;;;;15.10;3.97;;;5.70;99.90;;;;;;5000425;28;20186;-83
2024/03/06 02:13:56;;;;;;;17.67;4.93;;;5.60;99.90;;;;;;5000634;28;20163;-84
2024/03/06 02:16:22;;;;;;;17.30;4.63;;;5.60;99.90;;;;;;5000008;28;20160;-83
2024/03/06 02:18:54;;;;;;;17.07;4.40;;;5.60;99.90;;;;;;4983505;28;20226;-83
2024/03/06 02:21:24;;;;;;;14.80;2.80;;;5.60;99.90;;;;;;4999134;28;20183;-83
2024/03/06 02:23:54;;;;;;;17.05;4.32;;;5.60;99.90;;;;;;4998990;28;20521;-83
2024/03/06 02:26:21;;;;;;;16.13;3.60;;;5.70;99.90;;;;;;4981969;28;20195;-83
2024/03/06 02:28:56;;;;;;;17.95;4.63;;;5.70;99.90;;;;;;4985448;28;20230;-83
2024/03/06 02:31:22;;;;;;;15.77;3.10;;;5.80;99.90;;;;;;5003193;28;20187;-83
2024/03/06 02:33:49;;;;;;;13.65;2.95;;;5.80;99.90;;;;;;5003232;28;20174;-83
2024/03/06 02:36:16;;;;;;;14.38;2.95;;;5.80;99.90;;;;;;4986768;28;20202;-83
2024/03/06 02:38:43;;;;;;;14.43;3.13;;;5.80;99.90;;;;;;4990529;28;20544;-84
2024/03/06 02:41:10;;;;;;;14.52;2.75;;;5.70;99.90;;;;;;5007796;28;20191;-84
2024/03/06 02:43:36;;;;;;;13.65;3.05;;;5.60;99.90;;;;;;5008110;28;20171;-84
2024/03/06 02:46:02;;;;;;;15.15;3.47;;;5.60;99.90;;;;;;5006766;28;20201;-84
2024/03/06 02:48:28;;;;;;;14.35;2.60;;;5.50;99.90;;;;;;5008122;28;20167;-84
2024/03/06 02:50:54;;;;;;;14.70;3.33;;;5.50;99.90;;;;;;5007897;28;20195;-84
2024/03/06 02:53:19;;;;;;;13.60;2.60;;;5.40;99.90;;;;;;5007770;28;20164;-84
2024/03/06 02:55:45;;;;;;;13.90;2.17;;;5.40;99.90;;;;;;5006869;28;20182;-84
2024/03/06 02:58:11;;;;;;;14.60;3.60;;;5.30;99.90;;;;;;5008418;28;20171;-84
2024/03/06 03:00:36;;;;;;;17.77;2.80;;;5.30;99.90;;;;;;5007943;28;20237;-84
2024/03/06 03:03:02;;;;;;;13.87;2.83;;;5.20;99.90;;;;;;5007939;28;20645;-84
2024/03/06 03:05:28;;;;;;;18.27;2.83;;;5.20;99.90;;;;;;5007839;28;20199;-84
2024/03/06 03:07:53;;;;;;;12.67;1.90;;;5.10;99.90;;;;;;4990312;28;20410;-83
2024/03/06 03:10:19;;;;;;;15.90;3.20;;;5.10;99.90;;;;;;5006793;28;20191;-83
2024/03/06 03:12:45;;;;;;;14.33;3.10;;;5.00;99.90;;;;;;5007303;28;20167;-83
2024/03/06 03:15:11;;;;;;;15.52;2.65;;;5.00;99.90;;;;;;5006525;28;20175;-83
2024/03/06 03:17:37;;;;;;;15.07;3.45;;;4.90;99.90;;;;;;5005194;28;20199;-84
2024/03/06 03:20:09;;;;;;;13.00;2.47;;;5.00;99.90;;;;;;5006157;28;20163;-83
2024/03/06 03:22:38;;;;;;;13.60;2.55;;;5.00;99.90;;;;;;5006010;28;20390;-83
2024/03/06 03:25:07;;;;;;;13.52;2.80;;;4.90;99.90;;;;;;5004958;28;20203;-83
2024/03/06 03:27:33;;;;;;;13.90;2.30;;;4.80;99.90;;;;;;4987305;28;20290;-83
2024/03/06 03:29:59;;;;;;;13.60;2.97;;;4.70;99.90;;;;;;5004841;28;20171;-83
2024/03/06 03:32:25;;;;;;;13.73;3.03;;;4.70;99.90;;;;;;5003999;28;20173;-83
2024/03/06 03:34:50;;;;;;;13.90;3.30;;;4.60;99.90;;;;;;5005303;28;20592;-83
2024/03/06 03:37:16;;;;;;;14.30;2.87;;;4.60;99.90;;;;;;5005130;28;20556;-83
2024/03/06 03:39:44;;;;;;;15.37;2.50;;;4.60;99.90;;;;;;5004899;28;20629;-83
2024/03/06 03:42:10;;;;;;;14.38;3.00;;;4.50;99.90;;;;;;5004908;28;20258;-83
2024/03/06 03:44:35;;;;;;;15.07;2.87;;;4.50;99.90;;;;;;5004307;28;20171;-83
2024/03/06 03:47:02;;;;;;;15.67;2.63;;;4.50;99.90;;;;;;5004093;28;20163;-83
2024/03/06 03:49:27;;;;;;;13.45;2.58;;;4.50;99.90;;;;;;5003272;28;20167;-83
2024/03/06 03:51:53;;;;;;;13.20;2.50;;;4.50;99.90;;;;;;5001832;28;20262;-83
2024/03/06 03:54:18;;;;;;;13.93;2.40;;;4.60;99.90;;;;;;5000266;28;20167;-82
2024/03/06 03:56:44;;;;;;;12.50;1.83;;;4.50;99.90;;;;;;4999774;28;20532;-82
2024/03/06 03:59:10;;;;;;;15.33;3.60;;;4.50;99.90;;;;;;4999582;28;20170;-83
2024/03/06 04:01:35;;;;;;;14.77;2.90;;;4.60;99.90;;;;;;4999883;28;20238;-82
2024/03/06 04:04:01;;;;;;;12.27;1.70;;;4.50;99.90;;;;;;5000072;28;20202;-83
2024/03/06 04:06:27;;;;;;;14.90;2.40;;;4.50;99.90;;;;;;4982029;28;20747;-83
2024/03/06 04:08:52;;;;;;;14.27;2.40;;;4.50;99.90;;;;;;4999490;28;20167;-82
2024/03/06 04:11:18;;;;;;;15.70;2.87;;;4.40;99.90;;;;;;4999012;28;20179;-82
2024/03/06 04:13:44;;;;;;;13.90;2.85;;;4.50;99.90;;;;;;4999450;28;20178;-82
2024/03/06 04:16:10;;;;;;;13.60;2.60;;;4.50;99.90;;;;;;4999708;28;20198;-82
2024/03/06 04:18:35;;;;;;;14.33;2.70;;;4.50;99.90;;;;;;4999990;28;20168;-83
2024/03/06 04:21:05;;;;;;;12.77;2.10;;;4.50;99.90;;;;;;4999223;28;20191;-83
2024/03/06 04:23:32;;;;;;;14.48;2.42;;;4.40;99.90;;;;;;4999601;28;20186;-82
2024/03/06 04:26:01;;;;;;;13.13;2.70;;;4.50;99.90;;;;;;4999867;28;20671;-82
2024/03/06 04:28:27;;;;;;;13.25;2.95;;;4.50;99.90;;;;;;4999091;28;20164;-83
2024/03/06 04:30:53;;;;;;;12.87;2.57;;;4.40;99.90;;;;;;4999141;28;20359;-83
2024/03/06 04:33:19;;;;;;;12.77;2.40;;;4.40;99.90;;;;;;4999332;28;20655;-83
2024/03/06 04:35:44;;;;;;;12.83;2.47;;;4.40;99.90;;;;;;4999977;28;20481;-83
2024/03/06 04:38:10;;;;;;;13.47;2.13;;;4.50;99.90;;;;;;5001285;28;20656;-83
2024/03/06 04:40:35;;;;;;;14.77;2.60;;;4.60;99.90;;;;;;5000328;28;20674;-83
2024/03/06 04:43:01;;;;;;;13.23;1.97;;;4.70;99.90;;;;;;5000488;28;20250;-82
2024/03/06 04:45:28;;;;;;;14.77;2.53;;;4.80;99.90;;;;;;4983525;28;20199;-83
2024/03/06 04:47:54;;;;;;;13.40;2.05;;;4.80;99.90;;;;;;5000624;28;20576;-84
2024/03/06 04:50:20;;;;;;;12.43;2.75;;;4.90;99.90;;;;;;4998962;28;20191;-83
2024/03/06 04:52:46;;;;;;;13.10;2.20;;;4.90;99.90;;;;;;5000203;28;20175;-83
2024/03/06 04:55:12;;;;;;;12.93;2.60;;;4.90;99.90;;;;;;4999855;28;20164;-83
2024/03/06 04:57:40;;;;;;;11.85;2.00;;;5.00;99.90;;;;;;5000176;28;20422;-83
2024/03/06 05:00:08;;;;;;;12.32;2.05;;;5.00;99.90;;;;;;5002218;28;20640;-84
2024/03/06 05:02:35;;;;;;;12.00;1.60;;;5.10;99.90;;;;;;5004562;28;20259;-84
2024/03/06 05:05:02;;;;;;;13.40;2.38;;;5.20;99.90;;;;;;5005392;28;20198;-84
2024/03/06 05:07:29;;;;;;;11.90;1.77;;;5.20;99.90;;;;;;4988279;28;20167;-84
2024/03/06 05:09:55;;;;;;;13.45;1.90;;;5.20;99.90;;;;;;4988526;28;20167;-84
2024/03/06 05:12:20;;;;;;;12.60;1.90;;;5.30;99.90;;;;;;5006161;28;20161;-84
2024/03/06 05:14:49;;;;;;;11.90;1.60;;;5.30;99.90;;;;;;5006605;28;20402;-84
2024/03/06 05:17:15;;;;;;;14.85;2.47;;;5.30;99.90;;;;;;5005680;28;20764;-84
2024/03/06 05:19:41;;;;;;;12.33;1.67;;;5.30;99.90;;;;;;5005823;28;20195;-84
2024/03/06 05:22:06;;;;;;;14.23;2.03;;;5.30;99.90;;;;;;5005368;28;20187;-84
2024/03/06 05:24:32;;;;;;;13.57;1.70;;;5.30;99.90;;;;;;5003747;28;20194;-84
2024/03/06 05:26:58;;;;;;;13.17;2.33;;;5.30;99.90;;;;;;4988316;28;20179;-84
2024/03/06 05:29:23;;;;;;;13.00;2.37;;;5.30;99.90;;;;;;5005487;28;20179;-84
2024/03/06 05:31:49;;;;;;;12.47;1.90;;;5.30;99.90;;;;;;5004999;28;20628;-84
2024/03/06 05:34:14;;;;;;;12.63;2.07;;;5.30;99.90;;;;;;5005308;28;20171;-84
2024/03/06 05:36:40;;;;;;;13.20;2.60;;;5.30;99.90;;;;;;5004929;28;20179;-84
2024/03/06 05:39:12;;;;;;;12.80;2.20;;;5.40;99.90;;;;;;5005298;28;20186;-84
2024/03/06 05:41:39;;;;;;;13.02;2.33;;;5.40;99.90;;;;;;5005060;28;20607;-84
2024/03/06 05:44:05;;;;;;;12.50;1.90;;;5.40;99.90;;;;;;5003207;28;20171;-84
2024/03/06 05:46:30;;;;;;;14.30;3.00;;;5.40;99.90;;;;;;5005188;28;20195;-84
2024/03/06 05:48:58;;;;;;;12.57;2.03;;;5.40;99.90;;;;;;5004624;28;20305;-84
2024/03/06 05:51:24;;;;;;;12.82;2.38;;;5.30;99.90;;;;;;5002789;28;20243;-84
2024/03/06 05:53:50;;;;;;;13.60;1.87;;;5.30;99.90;;;;;;4987363;28;20167;-84
2024/03/06 05:56:18;;;;;;;12.30;1.70;;;5.20;99.90;;;;;;5003257;28;20171;-84
2024/03/06 05:58:46;;;;;;;12.68;2.10;;;5.20;99.90;;;;;;5003615;28;20171;-84
2024/03/06 06:01:15;;;;;;;13.00;2.10;;;5.10;99.90;;;;;;5005029;28;20178;-84
2024/03/06 06:03:41;;;;;;;12.57;2.00;;;5.10;99.90;;;;;;5008030;28;20166;-84
2024/03/06 06:06:08;;;;;;;13.02;2.53;;;5.10;99.90;;;;;;5008272;28;20198;-84
2024/03/06 06:08:34;;;;;;;11.93;2.00;;;5.00;99.90;;;;;;5007973;28;20162;-84
2024/03/06 06:11:02;;;;;;;12.75;1.92;;;5.00;99.90;;;;;;5006171;28;20239;-84
2024/03/06 06:13:29;;;;;;;12.50;2.50;;;5.00;99.90;;;;;;5003148;28;20184;-82
2024/03/06 06:15:58;;;;;;;11.73;1.53;;;4.90;99.90;;;;;;5005266;28;20169;-84
2024/03/06 06:18:23;;;;;;;13.40;2.70;;;4.90;99.90;;;;;;5003163;28;20410;-83
2024/03/06 06:20:52;;;;;;;13.37;2.27;;;4.80;99.90;;;;;;5004774;28;20274;-84
2024/03/06 06:23:17;;;;;;;12.32;2.42;;;4.80;99.90;;;;;;5003937;28;20572;-83
2024/03/06 06:25:43;;;;;;;14.47;2.33;;;4.70;99.90;;;;;;4985017;28;20230;-83
2024/03/06 06:28:10;;;;;;;12.50;1.50;;;4.70;99.90;;;;;;5003009;28;20438;-83
2024/03/06 06:30:39;;;;;;;12.60;1.80;;;4.60;99.90;;;;;;5002931;28;20245;-83
2024/03/06 06:33:05;;;;;;;12.65;1.65;;;4.60;99.90;;;;;;4984375;28;20171;-83
2024/03/06 06:35:31;;;;;;;13.10;2.67;;;4.60;99.90;;;;;;5000216;28;20171;-82
2024/03/06 06:37:56;;;;;;;13.17;2.70;;;4.60;99.90;;;;;;5000121;28;20162;-82
2024/03/06 06:40:22;;;;;;;12.47;2.30;;;4.70;99.90;;;;;;5001065;28;20183;-83
2024/03/06 06:42:49;;;;;;;12.40;1.48;;;4.70;99.90;;;;;;5001181;28;20254;-82
2024/03/06 06:45:19;;;;;;;12.15;1.90;;;4.60;99.90;;;;;;5000394;28;20195;-82
2024/03/06 06:47:45;;;;;;;12.45;2.00;;;4.60;99.90;;;;;;5000284;28;20167;-83
2024/03/06 06:50:11;;;;;;;11.82;1.83;;;4.60;99.90;;;;;;5006854;23;20222;-82
2024/03/06 06:52:38;;;;;;;13.98;2.30;;;4.60;99.90;;;;;;5000686;28;20160;-82
2024/03/06 06:55:05;;;;;;;14.13;2.47;;;4.70;99.90;;;;;;5000702;28;20163;-82
2024/03/06 06:57:31;;;;;;;12.38;1.98;;;4.70;99.90;;;;;;4999579;28;20160;-82
2024/03/06 06:59:56;;;;;;;12.30;1.90;;;4.70;99.90;;;;;;5000389;28;20171;-81
2024/03/06 07:02:22;;;;;;;15.30;2.70;;;4.60;99.90;;;;;;5000309;28;20423;-82
2024/03/06 07:04:48;;;;;;;13.10;2.40;;;4.60;99.90;;;;;;5000261;28;20568;-82
2024/03/06 07:07:14;;;;;;;12.20;1.80;;;4.60;99.90;;;;;;5000206;28;20238;-83
2024/03/06 07:09:40;;;;;;;14.07;2.00;;;4.70;99.90;;;;;;5000375;28;20171;-82
2024/03/06 07:12:07;;;;;;;13.13;2.90;;;4.80;99.90;;;;;;4981634;28;20187;-82
2024/03/06 07:14:33;;;;;;;14.32;2.42;;;4.80;99.90;;;;;;4999286;28;20163;-82
2024/03/06 07:16:59;;;;;;;13.73;3.13;;;4.90;99.90;;;;;;4999232;28;20170;-82
2024/03/06 07:19:24;;;;;;;17.57;3.73;;;5.00;99.90;;;;;;4999321;28;20492;-83
2024/03/06 07:21:50;;;;;;;15.53;3.17;;;5.10;99.90;;;;;;5000717;28;20230;-83
2024/03/06 07:24:16;;;;;;;17.00;4.10;;;5.10;99.90;;;;;;5001626;28;20230;-83
2024/03/06 07:26:43;;;;;;;17.40;3.10;;;5.10;99.90;;;;;;5001701;28;20274;-83
2024/03/06 07:29:14;;;;;;;16.00;3.28;;;5.20;99.90;;;;;;5002107;28;20156;-83
2024/03/06 07:31:41;;;;;;;15.10;3.38;;;5.30;99.90;;;;;;5001652;28;20184;-83
2024/03/06 07:34:08;;;;;;;14.25;3.20;;;5.30;99.90;;;;;;5000966;28;20635;-83
2024/03/06 07:36:37;;;;;;;14.23;2.70;;;5.40;99.90;;;;;;5001297;28;20212;-83
2024/03/06 07:39:04;;;;;;;16.02;2.95;;;5.50;99.90;;;;;;5001787;28;20226;-83
2024/03/06 07:41:34;;;;;;;21.80;4.50;;;5.50;99.90;;;;;;5001686;28;20279;-83
2024/03/06 07:44:00;;;;;;;12.65;2.30;;;5.60;99.90;;;;;;4984212;28;20203;-83
2024/03/06 07:46:26;;;;;;;12.75;2.33;;;5.60;99.90;;;;;;5001044;28;20202;-83
2024/03/06 07:48:51;;;;;;;13.73;3.00;;;5.70;99.90;;;;;;5001381;28;20178;-83
2024/03/06 07:51:17;;;;;;;13.07;2.27;;;5.70;99.90;;;;;;5001226;28;20259;-83
2024/03/06 07:53:43;;;;;;;15.18;2.90;;;5.80;99.90;;;;;;5000438;28;20183;-83
2024/03/06 07:56:12;;;;;;;12.50;2.13;;;5.80;99.90;;;;;;5000669;28;20164;-83
2024/03/06 07:58:38;;;;;;;12.70;2.05;;;5.80;99.90;;;;;;5000211;28;20460;-82
2024/03/06 08:01:04;;;;;;;15.93;2.47;;;5.80;99.90;;;;;;4998771;28;20266;-82
2024/03/06 08:03:29;;;;;;;14.57;2.40;;;5.90;99.90;;;;;;4981775;28;20415;-82
2024/03/06 08:05:55;;;;;;;12.67;2.23;;;5.80;99.90;;;;;;4998017;28;20453;-83
2024/03/06 08:08:22;;;;;;;12.63;2.20;;;5.90;99.90;;;;;;4981775;28;20248;-82
2024/03/06 08:10:48;;;;;;;13.20;2.90;;;6.00;99.90;;;;;;4999199;28;20187;-83
2024/03/06 08:13:14;;;;;;;11.93;1.95;;;6.10;99.90;;;;;;4998162;28;20171;-83
2024/03/06 08:15:40;;;;;;;12.35;2.25;;;6.10;99.90;;;;;;4999051;28;20199;-83
2024/03/06 08:18:06;;;;;;;12.10;1.90;;;6.10;99.90;;;;;;4999129;28;20178;-82
2024/03/06 08:20:32;;;;;;;12.98;2.28;;;6.10;99.90;;;;;;4997361;28;20438;-82
2024/03/06 08:23:04;;;;;;;13.15;2.22;;;6.20;99.90;;;;;;4998201;28;20659;-83
2024/03/06 08:25:32;;;;;;;15.65;2.35;;;6.30;99.90;;;;;;4998171;28;20203;-82
2024/03/06 08:27:59;;;;;;;13.23;2.00;;;6.30;99.90;;;;;;4999015;28;20156;-82
2024/03/06 08:30:25;;;;;;;13.32;2.80;;;6.30;99.90;;;;;;4999023;28;20183;-82
2024/03/06 08:32:51;;;;;;;12.68;2.55;;;6.40;99.90;;;;;;4998039;28;20242;-81
2024/03/06 08:35:19;;;;;;;14.93;2.33;;;6.40;99.90;;;;;;4980152;28;20254;-82
2024/03/06 08:37:45;;;;;;;12.40;2.20;;;6.40;99.90;;;;;;4980089;28;20178;-81
2024/03/06 08:40:14;;;;;;;11.90;2.27;;;6.50;99.90;;;;;;4997305;28;20684;-81
2024/03/06 08:42:43;;;;;;;13.40;2.30;;;6.50;99.90;;;;;;4979640;28;20548;-82
2024/03/06 08:45:10;;;;;;;14.40;2.80;;;6.50;99.90;;;;;;4996896;28;20619;-82
2024/03/06 08:47:36;;;;;;;13.40;1.85;;;6.50;99.90;;;;;;4996804;28;20175;-82
2024/03/06 08:50:02;;;;;;;12.93;2.57;;;6.60;99.90;;;;;;4996602;28;20174;-82
2024/03/06 08:52:30;;;;;;;13.48;2.55;;;6.60;99.90;;;;;;4996540;28;20163;-82
2024/03/06 08:54:56;;;;;;;12.75;2.13;;;6.70;99.90;;;;;;4997388;28;20522;-81
2024/03/06 08:57:22;;;;;;;12.10;2.13;;;6.70;99.90;;;;;;4997111;28;20190;-82
2024/03/06 08:59:48;;;;;;;12.57;2.00;;;6.70;99.90;;;;;;4996511;28;20417;-81
2024/03/06 09:02:18;;;;;;;12.97;2.50;;;6.80;99.90;;;;;;4996372;28;20175;-82
2024/03/06 09:04:44;;;;;;;12.55;2.58;;;6.80;99.90;;;;;;4996787;28;20405;-82
2024/03/06 09:07:10;;;;;;;19.73;2.97;;;6.90;99.90;;;;;;4995437;28;20175;-82
2024/03/06 09:09:37;;;;;;;15.02;2.88;;;6.90;99.90;;;;;;4996882;28;20170;-82
2024/03/06 09:12:07;;;;;;;12.77;2.05;;;7.00;99.90;;;;;;4979132;28;20183;-82
2024/03/06 09:14:33;;;;;;;13.73;3.00;;;7.00;99.90;;;;;;4996662;28;20556;-81
2024/03/06 09:17:00;;;;;;;14.82;2.70;;;7.00;99.90;;;;;;4996694;28;20187;-81
2024/03/06 09:19:25;;;;;;;13.82;3.45;;;7.00;99.90;;;;;;4996671;28;20172;-81
2024/03/06 09:21:51;;;;;;;16.70;3.10;;;7.10;99.90;;;;;;4997027;28;20187;-82
2024/03/06 09:24:17;;;;;;;13.60;3.23;;;7.10;99.90;;;;;;4996207;28;20417;-82
2024/03/06 09:26:43;;;;;;;14.23;2.90;;;7.20;99.90;;;;;;4996883;28;20446;-82
2024/03/06 09:29:10;;;;;;;12.70;2.70;;;7.30;99.90;;;;;;4996842;28;20170;-81
2024/03/06 09:31:37;;;;;;;13.50;2.80;;;7.40;99.90;;;;;;4997039;28;20187;-82
2024/03/06 09:34:05;;;;;;;13.50;2.45;;;7.40;99.90;;;;;;4996888;28;20242;-82
2024/03/06 09:36:32;;;;;;;15.80;2.85;;;7.40;99.90;;;;;;4997006;28;20660;-82
2024/03/06 09:38:58;;;;;;;13.30;2.78;;;7.50;99.90;;;;;;4979418;28;20649;-82
2024/03/06 09:41:24;;;;;;;14.40;2.70;;;7.50;99.90;;;;;;4979254;28;20730;-82
2024/03/06 09:43:50;;;;;;;13.93;2.92;;;7.50;99.90;;;;;;4980281;28;20179;-82
2024/03/06 09:46:17;;;;;;;13.60;2.70;;;7.60;99.90;;;;;;4996773;28;20198;-82
2024/03/06 09:48:51;;;;;;;14.30;3.10;;;7.60;99.90;;;;;;4980710;28;20442;-83
2024/03/06 09:51:17;;;;;;;14.20;3.38;;;7.70;99.90;;;;;;4980741;28;20206;-82
2024/03/06 09:53:43;;;;;;;16.67;2.67;;;7.70;99.90;;;;;;4998679;28;20318;-83
2024/03/06 09:56:09;;;;;;;14.88;3.08;;;7.80;99.90;;;;;;4998032;28;20635;-83
2024/03/06 09:58:38;;;;;;;13.82;3.35;;;8.00;99.90;;;;;;4996638;28;20178;-82
2024/03/06 10:01:07;;;;;;;14.80;3.17;;;8.10;99.90;;;;;;4997884;28;20206;-82
2024/03/06 10:03:36;;;;;;;15.90;3.10;;;8.30;99.90;;;;;;4980011;28;20258;-83
2024/03/06 10:06:02;;;;;;;13.45;2.90;;;8.40;99.90;;;;;;4997127;28;20250;-82
2024/03/06 10:08:28;;;;;;;13.53;3.03;;;8.40;99.90;;;;;;4997717;28;20163;-82
2024/03/06 10:10:54;;;;;;;14.80;2.83;;;8.50;99.90;;;;;;4996530;28;20426;-82
2024/03/06 10:13:27;;;;;;;14.40;3.73;;;8.70;99.90;;;;;;4997779;28;20170;-82
2024/03/06 10:16:03;;;;;;;15.23;4.03;;;9.00;99.90;;;;;;4997910;28;20426;-82
2024/03/06 10:18:32;;;;;;;14.82;3.85;;;9.40;99.90;;;;;;4997616;28;20167;-82
2024/03/06 10:20:58;;;;;;;14.15;3.45;;;9.50;99.90;;;;;;4996293;28;20199;-82
2024/03/06 10:23:34;;;;;;;16.15;3.67;;;9.80;99.90;;;;;;4995844;28;20172;-82
2024/03/06 10:26:00;;;;;;;14.77;3.85;;;9.90;99.90;;;;;;4996710;28;20191;-81
2024/03/06 10:28:27;;;;;;;14.13;3.80;;;10.00;99.90;;;;;;4997605;28;20174;-82
2024/03/06 10:31:03;;;;;;;14.75;3.30;;;9.80;99.90;;;;;;4997041;28;20175;-82
2024/03/06 10:33:29;;;;;;;15.43;4.40;;;9.80;99.90;;;;;;4997371;28;20155;-82
2024/03/06 10:35:55;;;;;;;13.67;3.53;;;9.90;99.90;;;;;;4996778;28;20175;-82
2024/03/06 10:38:21;;;;;;;14.13;3.40;;;10.00;99.90;;;;;;4996758;28;20167;-82
2024/03/06 10:40:49;;;;;;;14.02;3.10;;;10.30;99.90;;;;;;4979592;28;20430;-82
2024/03/06 10:43:15;;;;;;;14.80;3.47;;;10.60;99.90;;;;;;4997266;28;20167;-82
2024/03/06 10:46:06;;;;;;;16.87;3.70;;;10.70;99.90;;;;;;4996933;28;20210;-82
2024/03/06 10:48:31;;;;;;;18.35;4.10;;;10.60;99.90;;;;;;4997810;28;20465;-82
2024/03/06 10:50:59;;;;;;;13.93;3.10;;;10.80;99.90;;;;;;5000177;28;20206;-82
2024/03/06 10:53:26;;;;;;;16.17;4.03;;;10.90;99.90;;;;;;4998807;28;20420;-82
2024/03/06 10:55:53;;;;;;;15.63;3.63;;;10.80;99.90;;;;;;4999868;28;20172;-82
2024/03/06 10:58:20;;;;;;;16.83;4.10;;;11.10;99.90;;;;;;5000009;28;20198;-82
2024/03/06 11:00:47;;;;;;;20.77;4.03;;;11.00;99.90;;;;;;5000662;28;20191;-82
2024/03/06 11:03:13;;;;;;;15.30;3.67;;;11.20;99.90;;;;;;4982829;28;20195;-82
2024/03/06 11:05:40;;;;;;;16.00;3.75;;;11.70;99.90;;;;;;4999855;28;20704;-82
2024/03/06 11:08:11;;;;;;;16.52;4.85;;;11.60;99.90;;;;;;4999364;28;20221;-82
2024/03/06 11:10:39;;;;;;;14.82;3.70;;;11.40;91.40;;;;;;4998560;28;20278;-82
2024/03/06 11:13:25;;;;;;;14.43;3.03;;;11.40;51.20;;;;;;4982132;28;20178;-82
2024/03/06 11:15:53;;;;;;;14.63;3.10;;;11.40;38.70;;;;;;4999687;28;20162;-82
2024/03/06 11:18:28;;;;;;;16.63;3.67;;;11.70;22.00;;;;;;4999178;28;20258;-82
2024/03/06 11:21:08;;;;;;;16.58;3.70;;;11.40;22.60;;;;;;4999290;28;20218;-82
2024/03/06 11:23:34;;;;;;;14.57;3.47;;;11.50;3.60;;;;;;4981811;28;20171;-82
2024/03/06 11:26:06;;;;;;;15.90;3.85;;;11.50;11.50;;;;;;4981621;28;20233;-82
2024/03/06 11:28:32;;;;;;;15.27;3.50;;;11.90;1.00;;;;;;4998927;28;20152;-82
2024/03/06 11:31:00;;;;;;;16.90;4.67;;;12.00;1.00;;;;;;4998965;28;20241;-82
2024/03/06 11:33:39;;;;;;;15.02;3.75;;;11.70;1.00;;;;;;4999198;28;20164;-82
2024/03/06 11:36:28;;;;;;;17.45;3.90;;;11.60;1.00;;;;;;4999594;28;20686;-82
2024/03/06 11:39:06;;;;;;;17.83;4.22;;;11.90;1.00;;;;;;4999375;28;20243;-81
2024/03/06 11:41:47;;;;;;;14.02;3.13;;;11.80;1.00;;;;;;4981705;28;20358;-82
2024/03/06 11:44:24;;;;;;;15.23;3.90;;;11.50;1.00;;;;;;4998850;28;20238;-82
2024/03/06 11:47:00;;;;;;;15.93;3.90;;;11.50;1.00;;;;;;4999165;28;20186;-82
2024/03/06 11:49:33;;;;;;;15.02;3.78;;;11.20;1.00;;;;;;4998728;28;20521;-82
2024/03/06 11:52:02;;;;;;;14.57;3.53;;;11.20;1.00;;;;;;4998073;28;20195;-82
2024/03/06 11:54:29;;;;;;;15.13;3.78;;;11.30;1.00;;;;;;4997683;28;20167;-82
2024/03/06 11:56:56;;;;;;;17.98;3.10;;;11.60;1.00;;;;;;4997927;28;20182;-82
2024/03/06 11:59:30;;;;;;;14.00;2.83;;;12.00;1.00;;;;;;4997690;28;20510;-82
2024/03/06 12:01:58;;;;;;;14.52;4.10;;;12.50;1.00;;;;;;4997574;28;20542;-82
2024/03/06 12:04:24;;;;;;;15.50;3.65;;;12.90;1.00;;;;;;4980269;28;20177;-82
2024/03/06 12:06:50;;;;;;;14.00;2.70;;;13.10;1.00;;;;;;4997801;28;20193;-82
2024/03/06 12:09:16;;;;;;;14.30;2.97;;;13.30;1.00;;;;;;4996565;28;20205;-82
2024/03/06 12:11:43;;;;;;;16.33;3.20;;;13.40;1.00;;;;;;4996697;28;20430;-82
2024/03/06 12:14:17;;;;;;;14.33;2.53;;;13.40;1.00;;;;;;4980319;28;20159;-82
2024/03/06 12:16:56;;;;;;;14.10;3.20;;;13.30;1.00;;;;;;4980126;28;20442;-82
2024/03/06 12:19:22;;;;;;;14.07;3.30;;;13.30;1.00;;;;;;4995870;28;20406;-82
2024/03/06 12:21:49;;;;;;;13.10;2.40;;;13.20;1.00;;;;;;4997115;28;20510;-82
2024/03/06 12:24:19;;;;;;;12.37;2.23;;;13.10;1.00;;;;;;4997520;28;20561;-82
2024/03/06 12:26:52;;;;;;;13.82;2.90;;;13.00;1.00;;;;;;4997798;28;20438;-82
2024/03/06 12:29:19;;;;;;;15.88;2.22;;;12.90;1.00;;;;;;4981659;28;20166;-83
2024/03/06 12:31:45;;;;;;;15.13;2.92;;;12.70;1.00;;;;;;5001499;28;20179;-84
2024/03/06 12:34:17;;;;;;;13.83;2.33;;;12.90;1.00;;;;;;5000247;28;20164;-84
2024/03/06 12:36:43;;;;;;;14.27;3.03;;;12.90;1.00;;;;;;4999361;28;20225;-84
2024/03/06 12:39:12;;;;;;;13.57;2.90;;;12.80;1.00;;;;;;4999163;28;20387;-84
2024/03/06 12:41:41;;;;;;;15.40;3.65;;;12.90;1.00;;;;;;4997514;28;20219;-84
2024/03/06 12:44:07;;;;;;;15.02;2.63;;;13.30;1.00;;;;;;4998707;28;20236;-84
2024/03/06 12:46:33;;;;;;;17.47;3.73;;;13.50;1.00;;;;;;4998796;28;20190;-84